Terminal Aerodrome Forecast
Issued by NWS

Home | Current Version | Previous Version | Text Only | Print | Product List | Glossary On
Versions: 1 2 3 4 5 6 7 8 9 10 11 12 13 14 15
000
FTUS43 KDTX 201400 AAA
TAFYIP
TAF AMD
KYIP 201400Z 2014/2112 26008KT P6SM SCT040 BKN100 OVC200
      TEMPO 2016/2017 6SM -SHRA OVC040
     FM201700 23012KT P6SM BKN045
     FM202300 30007KT P6SM SCT045
     FM211000 VRB03KT 4SM BR SCT250=

USA.gov is the U.S. government's official web portal to all federal, state and local government web resources and services.